Terminal Aerodrome Forecast
Issued by NWS

Home | Current Version | Previous Version | Text Only | Print | Product List | Glossary On
Versions: 1 2 3 4 5 6 7 8 9 10 11 12 13 14 15 16
000
FTUS42 KTBW 010125 AAA
TAFRSW
TAF AMD
KRSW 010125Z 0101/0124 21006KT 5SM -RA VCTS SCT015CB BKN030 OVC070
      TEMPO 0101/0104 VRB20G25KT 2SM +TSRA BR BKN020CB
     FM010600 15008KT 6SM -RA SCT010 BKN035 OVC100
     FM011400 19011G19KT 6SM -RA FEW010 BKN030 OVC080
     FM011800 21013G22KT 6SM -RA VCTS SCT015CB BKN035 OVC080=

USA.gov is the U.S. government's official web portal to all federal, state and local government web resources and services.